Wilson Volos — V2FD5 — position and weather

sailwx.info

Track history (hours):
 
Tides and Currents Weather Stations Pressure Air Temp Water Temp Dewpoint Dewpoint Depression Visibility Wind Speed Wind Dir Waves Ship Positions

Wilson Volos

Last reported at 2017-Nov-19 11:54 UTC. Time now 2017-Nov-22 03:35 UTC.
Position N 47°24' W 006°07'.

Length 114 m; draft 3.8 m.

Type: Cargo ship. MMSI: 305641000.

Date/timePositionNaut miles runAvg speedWind from/ knotsBaromVisibWave heightAir tempDewpointWater temp
2017-Nov-19 11:54N 47°24' W 006°07'1311.1
2017-Nov-19 10:44N 47°36' W 006°08'611.3
2017-Nov-19 10:11N 47°43' W 006°09'2212.5
2017-Nov-19 08:24N 48°05' W 006°09'613.5
2017-Nov-19 07:58N 48°11' W 006°10'9311.8
2017-Nov-19 00:05N 49°43' W 006°03'711.8
2017-Nov-18 23:28N 49°51' W 006°02'13812.2
2017-Nov-18 12:11N 52°08' W 005°51'213.3
2017-Nov-18 12:00N 52°10' W 005°50'713.2
2017-Nov-18 11:30N 52°17' W 005°49'612.8
2017-Nov-18 11:00N 52°23' W 005°47'10911.2
2017-Nov-18 01:16N 54°11' W 005°21'310.9
2017-Nov-18 01:00N 54°14' W 005°21'510.9
2017-Nov-18 00:31N 54°19' W 005°19'510.8
2017-Nov-18 00:00N 54°25' W 005°18'510.7
2017-Nov-17 23:30N 54°30' W 005°20'510.9
2017-Nov-17 23:01N 54°35' W 005°22'611.6
2017-Nov-17 22:30N 54°41' W 005°24'612.5
2017-Nov-17 22:00N 54°47' W 005°29'713.1
2017-Nov-17 21:31N 54°53' W 005°33'2614.4
2017-Nov-17 19:40N 55°15' W 005°59'315.9
2017-Nov-17 19:30N 55°17' W 006°01'714.2
2017-Nov-17 19:00N 55°21' W 006°11'713.6
2017-Nov-17 18:30N 55°20' W 006°23'713.3
2017-Nov-17 17:59N 55°18' W 006°35'612.6
2017-Nov-17 17:30N 55°16' W 006°45'711.9
2017-Nov-17 16:55N 55°13' W 006°56'4 8.8
2017-Nov-17 16:29N 55°11' W 007°01'5 9.9
2017-Nov-17 15:57N 55°08' W 007°09'4 9.8
2017-Nov-17 15:30N 55°05' W 007°14'2 0.1
2017-Nov-16 08:39N 55°03' W 007°16'1 1.6
2017-Nov-16 08:16N 55°03' W 007°15'2 7.5
2017-Nov-16 07:59N 55°05' W 007°13'4 8.9
2017-Nov-16 07:30N 55°08' W 007°09'5 9.8
2017-Nov-16 07:00N 55°11' W 007°02'5 9.1
2017-Nov-16 06:29N 55°14' W 006°55'711.0
2017-Nov-16 05:50N 55°21' W 006°54'411.8
2017-Nov-16 05:28N 55°25' W 006°56'611.8
2017-Nov-16 04:56N 55°31' W 006°60'510.3
2017-Nov-16 04:29N 55°35' W 007°02'610.5
2017-Nov-16 03:54N 55°41' W 007°05'205 7.7
2017-Nov-15 01:29N 58°42' W 004°08'4 8.4
2017-Nov-15 01:00N 58°42' W 004°01'4 8.4
2017-Nov-15 00:30N 58°42' W 003°53'4 8.8
2017-Nov-15 00:00N 58°42' W 003°44'5 9.4
2017-Nov-14 23:29N 58°42' W 003°35'5 9.4
2017-Nov-14 23:00N 58°42' W 003°26'510.1
2017-Nov-14 22:30N 58°43' W 003°16'511.1
2017-Nov-14 22:00N 58°43' W 003°06'511.0
2017-Nov-14 21:30N 58°40' W 002°58'510.3
2017-Nov-14 21:00N 58°36' W 002°50'710.0
2017-Nov-14 20:16N 58°35' W 002°36'420 9.9
2017-Nov-13 01:54N 57°49' E 010°36'6 9.5
2017-Nov-13 01:14N 57°48' E 010°48'2 9.2
2017-Nov-13 01:00N 57°46' E 010°51'5 9.2
2017-Nov-13 00:30N 57°43' E 010°57'5 9.2
2017-Nov-13 00:00N 57°40' E 011°03'4 9.1
2017-Nov-12 23:30N 57°37' E 011°09'510.1
2017-Nov-12 23:00N 57°33' E 011°16'510.0
2017-Nov-12 22:29N 57°30' E 011°23'5 9.9
2017-Nov-12 22:00N 57°26' E 011°27'510.5
2017-Nov-12 21:30N 57°21' E 011°30'610.7
2017-Nov-12 21:00N 57°16' E 011°34'510.7
2017-Nov-12 20:30N 57°11' E 011°37'67 9.9
2017-Nov-12 13:42N 56°09' E 012°28'2 9.3
2017-Nov-12 13:30N 56°08' E 012°30'5 9.5
2017-Nov-12 13:00N 56°05' E 012°37'5 9.0
2017-Nov-12 12:30N 56°01' E 012°41'5 9.5
2017-Nov-12 12:00N 55°57' E 012°44'5 9.4
2017-Nov-12 11:30N 55°52' E 012°44'5 9.7
2017-Nov-12 11:00N 55°47' E 012°43'510.2
2017-Nov-12 10:30N 55°42' E 012°41'5 9.7
2017-Nov-12 10:00N 55°37' E 012°42'5 9.1
2017-Nov-12 09:30N 55°33' E 012°43'6 9.7
2017-Nov-12 08:55N 55°27' E 012°42'49 7.8
2017-Nov-12 02:38N 54°57' E 013°50'1 7.8
2017-Nov-12 02:29N 54°57' E 013°52'10 8.4
2017-Nov-12 01:16N 54°56' E 014°10'3 8.4
2017-Nov-12 00:55N 54°55' E 014°15'3 8.5
2017-Nov-12 00:30N 54°55' E 014°21'4 8.4
2017-Nov-12 00:00N 54°54' E 014°28'4 8.4
2017-Nov-11 23:30N 54°54' E 014°35'4 8.2
2017-Nov-11 23:00N 54°53' E 014°43'4 8.2
2017-Nov-11 22:30N 54°53' E 014°50'4 8.2
2017-Nov-11 22:00N 54°52' E 014°57'4 8.3
2017-Nov-11 21:29N 54°52' E 015°04'107 5.8
2017-Nov-11 03:01N 54°55' E 018°09'0 5.5
2017-Nov-11 02:56N 54°55' E 018°10'3 5.8
2017-Nov-11 02:30N 54°55' E 018°14'3 6.7
2017-Nov-11 02:00N 54°55' E 018°20'4 7.2
2017-Nov-11 01:30N 54°55' E 018°27'4 7.5
2017-Nov-11 01:00N 54°55' E 018°33'4 8.1
2017-Nov-11 00:30N 54°54' E 018°40'5 9.2
2017-Nov-11 00:00N 54°51' E 018°46'5 9.4
2017-Nov-10 23:30N 54°48' E 018°52'5 9.4
2017-Nov-10 23:00N 54°45' E 018°59'510.6
2017-Nov-10 22:30N 54°40' E 018°58'510.9
2017-Nov-10 22:00N 54°35' E 018°53'510.3
2017-Nov-10 21:30N 54°32' E 018°47'510.1
2017-Nov-10 21:00N 54°32' E 018°38'3 5.1
2017-Nov-10 20:28N 54°32' E 018°34'0 0.2
2017-Nov-10 19:58N 54°32' E 018°33'0 0.0
2017-Nov-10 19:28N 54°32' E 018°33'0 0.0
2017-Nov-10 18:58N 54°32' E 018°33'0 0.0
2017-Nov-10 18:28N 54°32' E 018°33'0 0.0
2017-Nov-10 17:58N 54°32' E 018°33'0 0.0
2017-Nov-10 17:28N 54°32' E 018°33'0 0.0
2017-Nov-10 16:58N 54°32' E 018°33'0 0.0
2017-Nov-10 16:28N 54°32' E 018°33'0 0.0
2017-Nov-10 15:58N 54°32' E 018°33'0 0.0
2017-Nov-10 15:25N 54°32' E 018°33'0 0.0
2017-Nov-10 14:58N 54°32' E 018°33'0 0.0
2017-Nov-10 14:28N 54°32' E 018°33'0 0.0
2017-Nov-10 13:58N 54°32' E 018°33'0 0.0
2017-Nov-10 13:28N 54°32' E 018°33'0 0.0
2017-Nov-10 12:58N 54°32' E 018°33'0 0.0
2017-Nov-10 12:28N 54°32' E 018°33'0 0.0
2017-Nov-10 11:58N 54°32' E 018°33'0 0.0
2017-Nov-10 11:28N 54°32' E 018°33'0 0.0
2017-Nov-10 10:58N 54°32' E 018°33'0 0.0
2017-Nov-10 10:25N 54°32' E 018°33'0 0.0
2017-Nov-10 09:58N 54°32' E 018°33'0 0.0
2017-Nov-10 09:28N 54°32' E 018°33'0 0.0
2017-Nov-10 08:55N 54°32' E 018°33'0 0.0
2017-Nov-10 08:28N 54°32' E 018°33'0 0.0
2017-Nov-10 07:55N 54°32' E 018°33'0 0.0
2017-Nov-10 07:28N 54°32' E 018°33'0 0.0
2017-Nov-10 06:58N 54°32' E 018°33'0 0.0
2017-Nov-10 06:25N 54°32' E 018°33'0 0.0
2017-Nov-10 05:58N 54°32' E 018°33'0 0.0
2017-Nov-10 05:28N 54°32' E 018°33'0 0.0
2017-Nov-10 04:55N 54°32' E 018°33'0 0.0
2017-Nov-10 04:28N 54°32' E 018°33'0 0.0
2017-Nov-10 03:58N 54°32' E 018°33'0 0.0
2017-Nov-10 03:28N 54°32' E 018°33'0 0.0
2017-Nov-10 02:58N 54°32' E 018°33'0 0.0
2017-Nov-10 02:28N 54°32' E 018°33'0 0.0
2017-Nov-10 01:58N 54°32' E 018°33'0 0.0
2017-Nov-10 01:28N 54°32' E 018°33'0 0.0
2017-Nov-10 00:58N 54°32' E 018°33'0 0.0
2017-Nov-10 00:28N 54°32' E 018°33'0 0.0
2017-Nov-09 23:58N 54°32' E 018°33'0 0.0
2017-Nov-09 23:28N 54°32' E 018°33'0 0.0
2017-Nov-09 22:58N 54°32' E 018°33'0 0.0
2017-Nov-09 22:22N 54°32' E 018°33'0 0.0
2017-Nov-09 21:58N 54°32' E 018°33'0 0.0
2017-Nov-09 21:28N 54°32' E 018°33'0 0.0
2017-Nov-09 20:58N 54°32' E 018°33'0 0.0
2017-Nov-09 20:28N 54°32' E 018°33'0 0.0
2017-Nov-09 19:58N 54°32' E 018°33'0 0.0
2017-Nov-09 19:28N 54°32' E 018°33'0 0.0
2017-Nov-09 18:58N 54°32' E 018°33'0 0.0
2017-Nov-09 18:28N 54°32' E 018°33'0 0.0
2017-Nov-09 17:58N 54°32' E 018°33'0 0.0
2017-Nov-09 17:28N 54°32' E 018°33'0 0.0
2017-Nov-09 16:58N 54°32' E 018°33'0 0.0
2017-Nov-09 16:28N 54°32' E 018°33'0 0.0
2017-Nov-09 15:58N 54°32' E 018°33'0 0.0
2017-Nov-09 15:25N 54°32' E 018°33'0 0.0
2017-Nov-09 14:58N 54°32' E 018°33'0 0.0
2017-Nov-09 14:28N 54°32' E 018°33'0 0.0
2017-Nov-09 13:58N 54°32' E 018°33'0 0.0
2017-Nov-09 13:28N 54°32' E 018°33'0 0.0
2017-Nov-09 12:58N 54°32' E 018°33'0 0.0
2017-Nov-09 12:28N 54°32' E 018°33'0 0.0
2017-Nov-09 11:58N 54°32' E 018°33'  
Track history (hours):
 
Tides and Currents Weather Stations Pressure Air Temp Water Temp Dewpoint Dewpoint Depression Visibility Wind Speed Wind Dir Waves Ship Positions

Wilson Volos

Last reported at 2017-Nov-19 11:54 UTC. Time now 2017-Nov-22 03:35 UTC.
Position N 47°24' W 006°07'.

Length 114 m; draft 3.8 m.

Type: Cargo ship. MMSI: 305641000.

Date/timePositionNaut miles runAvg speedWind from/ knotsBaromVisibWave heightAir tempDewpointWater temp
2017-Nov-19 11:54N 47°24' W 006°07'1311.1
2017-Nov-19 10:44N 47°36' W 006°08'611.3
2017-Nov-19 10:11N 47°43' W 006°09'2212.5
2017-Nov-19 08:24N 48°05' W 006°09'613.5
2017-Nov-19 07:58N 48°11' W 006°10'9311.8
2017-Nov-19 00:05N 49°43' W 006°03'711.8
2017-Nov-18 23:28N 49°51' W 006°02'13812.2
2017-Nov-18 12:11N 52°08' W 005°51'213.3
2017-Nov-18 12:00N 52°10' W 005°50'713.2
2017-Nov-18 11:30N 52°17' W 005°49'612.8
2017-Nov-18 11:00N 52°23' W 005°47'10911.2
2017-Nov-18 01:16N 54°11' W 005°21'310.9
2017-Nov-18 01:00N 54°14' W 005°21'510.9
2017-Nov-18 00:31N 54°19' W 005°19'510.8
2017-Nov-18 00:00N 54°25' W 005°18'510.7
2017-Nov-17 23:30N 54°30' W 005°20'510.9
2017-Nov-17 23:01N 54°35' W 005°22'611.6
2017-Nov-17 22:30N 54°41' W 005°24'612.5
2017-Nov-17 22:00N 54°47' W 005°29'713.1
2017-Nov-17 21:31N 54°53' W 005°33'2614.4
2017-Nov-17 19:40N 55°15' W 005°59'315.9
2017-Nov-17 19:30N 55°17' W 006°01'714.2
2017-Nov-17 19:00N 55°21' W 006°11'713.6
2017-Nov-17 18:30N 55°20' W 006°23'713.3
2017-Nov-17 17:59N 55°18' W 006°35'612.6
2017-Nov-17 17:30N 55°16' W 006°45'711.9
2017-Nov-17 16:55N 55°13' W 006°56'4 8.8
2017-Nov-17 16:29N 55°11' W 007°01'5 9.9
2017-Nov-17 15:57N 55°08' W 007°09'4 9.8
2017-Nov-17 15:30N 55°05' W 007°14'2 0.1
2017-Nov-16 08:39N 55°03' W 007°16'1 1.6
2017-Nov-16 08:16N 55°03' W 007°15'2 7.5
2017-Nov-16 07:59N 55°05' W 007°13'4 8.9
2017-Nov-16 07:30N 55°08' W 007°09'5 9.8
2017-Nov-16 07:00N 55°11' W 007°02'5 9.1
2017-Nov-16 06:29N 55°14' W 006°55'711.0
2017-Nov-16 05:50N 55°21' W 006°54'411.8
2017-Nov-16 05:28N 55°25' W 006°56'611.8
2017-Nov-16 04:56N 55°31' W 006°60'510.3
2017-Nov-16 04:29N 55°35' W 007°02'610.5
2017-Nov-16 03:54N 55°41' W 007°05'205 7.7
2017-Nov-15 01:29N 58°42' W 004°08'4 8.4
2017-Nov-15 01:00N 58°42' W 004°01'4 8.4
2017-Nov-15 00:30N 58°42' W 003°53'4 8.8
2017-Nov-15 00:00N 58°42' W 003°44'5 9.4
2017-Nov-14 23:29N 58°42' W 003°35'5 9.4
2017-Nov-14 23:00N 58°42' W 003°26'510.1
2017-Nov-14 22:30N 58°43' W 003°16'511.1
2017-Nov-14 22:00N 58°43' W 003°06'511.0
2017-Nov-14 21:30N 58°40' W 002°58'510.3
2017-Nov-14 21:00N 58°36' W 002°50'710.0
2017-Nov-14 20:16N 58°35' W 002°36'420 9.9
2017-Nov-13 01:54N 57°49' E 010°36'6 9.5
2017-Nov-13 01:14N 57°48' E 010°48'2 9.2
2017-Nov-13 01:00N 57°46' E 010°51'5 9.2
2017-Nov-13 00:30N 57°43' E 010°57'5 9.2
2017-Nov-13 00:00N 57°40' E 011°03'4 9.1
2017-Nov-12 23:30N 57°37' E 011°09'510.1
2017-Nov-12 23:00N 57°33' E 011°16'510.0
2017-Nov-12 22:29N 57°30' E 011°23'5 9.9
2017-Nov-12 22:00N 57°26' E 011°27'510.5
2017-Nov-12 21:30N 57°21' E 011°30'610.7
2017-Nov-12 21:00N 57°16' E 011°34'510.7
2017-Nov-12 20:30N 57°11' E 011°37'67 9.9
2017-Nov-12 13:42N 56°09' E 012°28'2 9.3
2017-Nov-12 13:30N 56°08' E 012°30'5 9.5
2017-Nov-12 13:00N 56°05' E 012°37'5 9.0
2017-Nov-12 12:30N 56°01' E 012°41'5 9.5
2017-Nov-12 12:00N 55°57' E 012°44'5 9.4
2017-Nov-12 11:30N 55°52' E 012°44'5 9.7
2017-Nov-12 11:00N 55°47' E 012°43'510.2
2017-Nov-12 10:30N 55°42' E 012°41'5 9.7
2017-Nov-12 10:00N 55°37' E 012°42'5 9.1
2017-Nov-12 09:30N 55°33' E 012°43'6 9.7
2017-Nov-12 08:55N 55°27' E 012°42'49 7.8
2017-Nov-12 02:38N 54°57' E 013°50'1 7.8
2017-Nov-12 02:29N 54°57' E 013°52'10 8.4
2017-Nov-12 01:16N 54°56' E 014°10'3 8.4
2017-Nov-12 00:55N 54°55' E 014°15'3 8.5
2017-Nov-12 00:30N 54°55' E 014°21'4 8.4
2017-Nov-12 00:00N 54°54' E 014°28'4 8.4
2017-Nov-11 23:30N 54°54' E 014°35'4 8.2
2017-Nov-11 23:00N 54°53' E 014°43'4 8.2
2017-Nov-11 22:30N 54°53' E 014°50'4 8.2
2017-Nov-11 22:00N 54°52' E 014°57'4 8.3
2017-Nov-11 21:29N 54°52' E 015°04'107 5.8
2017-Nov-11 03:01N 54°55' E 018°09'0 5.5
2017-Nov-11 02:56N 54°55' E 018°10'3 5.8
2017-Nov-11 02:30N 54°55' E 018°14'3 6.7
2017-Nov-11 02:00N 54°55' E 018°20'4 7.2
2017-Nov-11 01:30N 54°55' E 018°27'4 7.5
2017-Nov-11 01:00N 54°55' E 018°33'4 8.1
2017-Nov-11 00:30N 54°54' E 018°40'5 9.2
2017-Nov-11 00:00N 54°51' E 018°46'5 9.4
2017-Nov-10 23:30N 54°48' E 018°52'5 9.4
2017-Nov-10 23:00N 54°45' E 018°59'510.6
2017-Nov-10 22:30N 54°40' E 018°58'510.9
2017-Nov-10 22:00N 54°35' E 018°53'510.3
2017-Nov-10 21:30N 54°32' E 018°47'510.1
2017-Nov-10 21:00N 54°32' E 018°38'3 5.1
2017-Nov-10 20:28N 54°32' E 018°34'0 0.2
2017-Nov-10 19:58N 54°32' E 018°33'0 0.0
2017-Nov-10 19:28N 54°32' E 018°33'0 0.0
2017-Nov-10 18:58N 54°32' E 018°33'0 0.0
2017-Nov-10 18:28N 54°32' E 018°33'0 0.0
2017-Nov-10 17:58N 54°32' E 018°33'0 0.0
2017-Nov-10 17:28N 54°32' E 018°33'0 0.0
2017-Nov-10 16:58N 54°32' E 018°33'0 0.0
2017-Nov-10 16:28N 54°32' E 018°33'0 0.0
2017-Nov-10 15:58N 54°32' E 018°33'0 0.0
2017-Nov-10 15:25N 54°32' E 018°33'0 0.0
2017-Nov-10 14:58N 54°32' E 018°33'0 0.0
2017-Nov-10 14:28N 54°32' E 018°33'0 0.0
2017-Nov-10 13:58N 54°32' E 018°33'0 0.0
2017-Nov-10 13:28N 54°32' E 018°33'0 0.0
2017-Nov-10 12:58N 54°32' E 018°33'0 0.0
2017-Nov-10 12:28N 54°32' E 018°33'0 0.0
2017-Nov-10 11:58N 54°32' E 018°33'0 0.0
2017-Nov-10 11:28N 54°32' E 018°33'0 0.0
2017-Nov-10 10:58N 54°32' E 018°33'0 0.0
2017-Nov-10 10:25N 54°32' E 018°33'0 0.0
2017-Nov-10 09:58N 54°32' E 018°33'0 0.0
2017-Nov-10 09:28N 54°32' E 018°33'0 0.0
2017-Nov-10 08:55N 54°32' E 018°33'0 0.0
2017-Nov-10 08:28N 54°32' E 018°33'0 0.0
2017-Nov-10 07:55N 54°32' E 018°33'0 0.0
2017-Nov-10 07:28N 54°32' E 018°33'0 0.0
2017-Nov-10 06:58N 54°32' E 018°33'0 0.0
2017-Nov-10 06:25N 54°32' E 018°33'0 0.0
2017-Nov-10 05:58N 54°32' E 018°33'0 0.0
2017-Nov-10 05:28N 54°32' E 018°33'0 0.0
2017-Nov-10 04:55N 54°32' E 018°33'0 0.0
2017-Nov-10 04:28N 54°32' E 018°33'0 0.0
2017-Nov-10 03:58N 54°32' E 018°33'0 0.0
2017-Nov-10 03:28N 54°32' E 018°33'0 0.0
2017-Nov-10 02:58N 54°32' E 018°33'0 0.0
2017-Nov-10 02:28N 54°32' E 018°33'0 0.0
2017-Nov-10 01:58N 54°32' E 018°33'0 0.0
2017-Nov-10 01:28N 54°32' E 018°33'0 0.0
2017-Nov-10 00:58N 54°32' E 018°33'0 0.0
2017-Nov-10 00:28N 54°32' E 018°33'0 0.0
2017-Nov-09 23:58N 54°32' E 018°33'0 0.0
2017-Nov-09 23:28N 54°32' E 018°33'0 0.0
2017-Nov-09 22:58N 54°32' E 018°33'0 0.0
2017-Nov-09 22:22N 54°32' E 018°33'0 0.0
2017-Nov-09 21:58N 54°32' E 018°33'0 0.0
2017-Nov-09 21:28N 54°32' E 018°33'0 0.0
2017-Nov-09 20:58N 54°32' E 018°33'0 0.0
2017-Nov-09 20:28N 54°32' E 018°33'0 0.0
2017-Nov-09 19:58N 54°32' E 018°33'0 0.0
2017-Nov-09 19:28N 54°32' E 018°33'0 0.0
2017-Nov-09 18:58N 54°32' E 018°33'0 0.0
2017-Nov-09 18:28N 54°32' E 018°33'0 0.0
2017-Nov-09 17:58N 54°32' E 018°33'0 0.0
2017-Nov-09 17:28N 54°32' E 018°33'0 0.0
2017-Nov-09 16:58N 54°32' E 018°33'0 0.0
2017-Nov-09 16:28N 54°32' E 018°33'0 0.0
2017-Nov-09 15:58N 54°32' E 018°33'0 0.0
2017-Nov-09 15:25N 54°32' E 018°33'0 0.0
2017-Nov-09 14:58N 54°32' E 018°33'0 0.0
2017-Nov-09 14:28N 54°32' E 018°33'0 0.0
2017-Nov-09 13:58N 54°32' E 018°33'0 0.0
2017-Nov-09 13:28N 54°32' E 018°33'0 0.0
2017-Nov-09 12:58N 54°32' E 018°33'0 0.0
2017-Nov-09 12:28N 54°32' E 018°33'0 0.0
2017-Nov-09 11:58N 54°32' E 018°33'  

Dump ship's entire track history